createdAt,value
2023-04-14T00:01:49.005Z,35.47
2023-04-14T00:04:16.387Z,37.55
2023-04-14T00:06:43.550Z,41.40
2023-04-14T00:09:10.541Z,37.53
2023-04-14T00:11:37.624Z,38.03
2023-04-14T00:14:04.541Z,40.67
2023-04-14T00:16:31.834Z,41.73
2023-04-14T00:18:58.833Z,38.70
2023-04-14T00:21:27.062Z,35.60
2023-04-14T00:23:53.813Z,35.43
2023-04-14T00:26:20.919Z,41.27
2023-04-14T00:28:48.004Z,42.80
2023-04-14T00:31:16.632Z,40.70
2023-04-14T00:33:43.372Z,45.87
2023-04-14T00:36:10.436Z,42.65
2023-04-14T00:38:37.166Z,41.83
2023-04-14T00:41:04.300Z,52.90
2023-04-14T00:43:31.051Z,50.33
2023-04-14T00:45:58.556Z,49.53
2023-04-14T00:48:25.602Z,47.33
2023-04-14T00:50:52.659Z,44.10
2023-04-14T00:53:20.105Z,49.60
2023-04-14T00:55:47.523Z,50.77
2023-04-14T00:58:15.889Z,48.27
2023-04-14T01:00:43.071Z,45.20
2023-04-14T01:03:10.208Z,49.87
2023-04-14T01:05:37.258Z,50.10
2023-04-14T01:08:04.368Z,50.40
2023-04-14T01:10:46.934Z,48.00
2023-04-14T01:13:43.702Z,48.20
2023-04-14T01:16:29.697Z,47.17
2023-04-14T01:19:26.364Z,46.40
2023-04-14T01:21:57.915Z,46.27
2023-04-14T01:24:36.949Z,45.57
2023-04-14T01:27:23.871Z,48.67
2023-04-14T01:30:09.085Z,48.20
2023-04-14T01:32:42.915Z,43.60
2023-04-14T01:35:20.799Z,39.50
2023-04-14T01:37:52.421Z,45.20
2023-04-14T01:40:20.886Z,43.53
2023-04-14T01:42:56.192Z,43.83
2023-04-14T01:45:26.591Z,40.00
2023-04-14T01:47:55.134Z,43.17
2023-04-14T01:50:23.250Z,39.93
2023-04-14T01:52:54.620Z,40.87
2023-04-14T01:55:26.486Z,41.10
2023-04-14T01:57:57.594Z,42.70
2023-04-14T02:00:25.629Z,40.83
2023-04-14T02:02:54.325Z,42.47
2023-04-14T02:05:23.104Z,44.10
2023-04-14T02:07:53.127Z,45.10
2023-04-14T02:10:21.737Z,50.60
2023-04-14T02:12:52.648Z,39.53
2023-04-14T02:15:20.732Z,42.67
2023-04-14T02:17:50.814Z,40.70
2023-04-14T02:20:20.400Z,37.33
2023-04-14T02:22:48.366Z,38.00
2023-04-14T02:25:15.107Z,41.70
2023-04-14T02:28:15.972Z,40.87
2023-04-14T02:30:47.051Z,41.17
2023-04-14T02:33:19.304Z,43.90
2023-04-14T02:36:10.787Z,39.73
2023-04-14T02:38:45.877Z,43.63
2023-04-14T02:41:20.226Z,39.00
2023-04-14T02:44:14.284Z,39.37
2023-04-14T02:46:46.082Z,38.60
2023-04-14T02:49:16.466Z,36.07
2023-04-14T02:51:46.884Z,38.03
2023-04-14T02:54:18.132Z,36.37
2023-04-14T02:56:48.046Z,42.33
2023-04-14T02:59:17.441Z,41.00
2023-04-14T03:01:54.742Z,36.93
2023-04-14T03:04:23.545Z,32.90
2023-04-14T03:06:51.727Z,37.00
2023-04-14T03:09:22.087Z,36.33
2023-04-14T03:11:50.046Z,42.13
2023-04-14T03:14:19.202Z,42.77
2023-04-14T03:16:47.033Z,42.87
2023-04-14T03:19:14.767Z,41.53
2023-04-14T03:21:46.345Z,41.93
2023-04-14T03:24:18.077Z,41.50
2023-04-14T03:26:47.429Z,40.33
2023-04-14T03:29:19.233Z,39.13
2023-04-14T03:31:47.686Z,41.90
2023-04-14T03:34:17.082Z,36.13
2023-04-14T03:36:54.534Z,38.43
2023-04-14T03:39:26.412Z,37.67
2023-04-14T03:41:58.011Z,34.77
2023-04-14T03:44:27.474Z,36.90
2023-04-14T03:46:54.665Z,36.93
2023-04-14T03:49:24.309Z,37.63
2023-04-14T03:51:54.799Z,34.87
2023-04-14T03:54:24.598Z,38.17
2023-04-14T03:56:56.856Z,37.57
2023-04-14T03:59:27.412Z,36.45
2023-04-14T04:01:56.030Z,37.73
2023-04-14T04:04:26.640Z,39.27
2023-04-14T04:06:53.982Z,38.47
2023-04-14T04:09:24.510Z,44.43
2023-04-14T04:11:57.209Z,45.67
2023-04-14T04:14:28.126Z,39.77
2023-04-14T04:16:56.267Z,40.10
2023-04-14T04:19:25.252Z,39.20
2023-04-14T04:21:57.006Z,36.37
2023-04-14T04:24:27.088Z,38.60
2023-04-14T04:26:54.322Z,35.07
2023-04-14T04:29:23.432Z,37.80
2023-04-14T04:31:51.118Z,43.90
2023-04-14T04:34:20.855Z,38.70
2023-04-14T04:36:48.167Z,37.93
2023-04-14T04:39:15.749Z,41.90
2023-04-14T04:41:43.684Z,40.77
2023-04-14T04:44:11.367Z,37.07
2023-04-14T04:46:54.384Z,36.27
2023-04-14T04:49:25.987Z,36.70
2023-04-14T04:51:54.467Z,37.40
2023-04-14T04:54:21.660Z,36.50
2023-04-14T04:56:48.406Z,36.03
2023-04-14T04:59:16.135Z,36.67
2023-04-14T05:01:42.988Z,43.50
2023-04-14T05:04:10.144Z,38.43
2023-04-14T05:06:37.560Z,41.80
2023-04-14T05:09:05.074Z,36.10
2023-04-14T05:11:33.250Z,36.33
2023-04-14T05:14:00.613Z,34.53
2023-04-14T05:16:28.366Z,34.17
2023-04-14T05:18:56.211Z,32.05
2023-04-14T05:21:23.068Z,31.63
2023-04-14T05:23:50.448Z,28.65
2023-04-14T05:28:47.229Z,36.63
2023-04-14T05:31:14.029Z,33.97
2023-04-14T05:33:41.094Z,28.60
2023-04-14T05:36:08.357Z,28.93
2023-04-14T05:38:40.081Z,31.03
2023-04-14T05:41:07.742Z,30.83
2023-04-14T05:43:34.980Z,28.53
2023-04-14T05:46:02.346Z,31.00
2023-04-14T05:48:30.808Z,33.37
2023-04-14T05:50:58.160Z,30.03
2023-04-14T05:53:25.788Z,32.57
2023-04-14T05:55:52.851Z,29.13
2023-04-14T05:58:20.141Z,24.80
2023-04-14T06:00:47.069Z,24.17
2023-04-14T06:03:16.291Z,27.70
2023-04-14T06:05:43.396Z,27.03
2023-04-14T06:08:10.552Z,25.73
2023-04-14T06:10:37.398Z,27.87
2023-04-14T06:13:04.440Z,24.53
2023-04-14T06:15:31.539Z,24.43
2023-04-14T06:17:58.656Z,23.23
2023-04-14T06:20:25.786Z,22.20
2023-04-14T06:22:52.901Z,22.33
2023-04-14T06:25:19.742Z,22.23
2023-04-14T06:27:47.105Z,22.00
2023-04-14T06:30:16.879Z,28.73
2023-04-14T06:32:44.115Z,21.95
2023-04-14T06:35:18.977Z,19.30
2023-04-14T06:37:50.870Z,22.17
2023-04-14T06:40:17.654Z,17.30
2023-04-14T06:42:44.669Z,20.35
2023-04-14T06:45:11.633Z,21.30
2023-04-14T06:47:38.809Z,21.85
2023-04-14T06:50:06.311Z,18.95
2023-04-14T06:52:33.383Z,17.50
2023-04-14T06:55:00.341Z,22.65
2023-04-14T06:57:27.543Z,21.77
2023-04-14T06:59:54.315Z,18.50
2023-04-14T07:02:21.462Z,17.00
2023-04-14T07:04:48.396Z,17.60
2023-04-14T07:07:15.532Z,19.85
2023-04-14T07:09:42.927Z,15.00
2023-04-14T07:12:14.407Z,13.75
2023-04-14T07:14:41.530Z,12.68
2023-04-14T07:17:09.106Z,14.75
2023-04-14T07:19:35.867Z,18.10
2023-04-14T07:22:03.025Z,17.15
2023-04-14T07:24:29.774Z,17.80
2023-04-14T07:26:56.830Z,16.27
2023-04-14T07:29:23.708Z,18.90
2023-04-14T07:31:50.741Z,15.77
2023-04-14T07:34:18.104Z,15.93
2023-04-14T07:36:45.623Z,21.45
2023-04-14T07:39:12.553Z,19.67
2023-04-14T07:41:39.514Z,19.45
2023-04-14T07:44:06.361Z,17.27
2023-04-14T07:46:33.457Z,20.45
2023-04-14T07:49:00.436Z,21.35
2023-04-14T07:51:27.430Z,18.35
2023-04-14T07:53:56.049Z,16.90
2023-04-14T07:56:23.153Z,17.95
2023-04-14T07:58:49.901Z,17.95
2023-04-14T08:01:17.109Z,19.08
2023-04-14T08:03:45.549Z,15.82
2023-04-14T08:06:13.254Z,18.55
2023-04-14T08:08:40.416Z,16.88
2023-04-14T08:11:07.439Z,13.55
2023-04-14T08:13:34.285Z,12.88
2023-04-14T08:16:01.393Z,12.02
2023-04-14T08:18:28.650Z,14.50
2023-04-14T08:20:56.567Z,15.07
2023-04-14T08:23:23.302Z,14.05
2023-04-14T08:25:50.693Z,11.85
2023-04-14T08:28:17.493Z,11.65
2023-04-14T08:30:44.628Z,15.43
2023-04-14T08:33:11.691Z,16.95
2023-04-14T08:35:42.595Z,13.80
2023-04-14T08:38:10.121Z,15.27
2023-04-14T08:40:39.914Z,13.15
2023-04-14T08:43:07.333Z,12.07
2023-04-14T08:45:35.608Z,14.13
2023-04-14T08:48:04.110Z,12.10
2023-04-14T08:50:43.465Z,10.52
2023-04-14T08:53:10.526Z,13.02
2023-04-14T08:55:41.846Z,10.30
2023-04-14T08:58:10.693Z,18.02
2023-04-14T09:00:40.156Z,13.00
2023-04-14T09:03:09.164Z,11.90
2023-04-14T09:05:37.398Z,9.48
2023-04-14T09:08:04.713Z,12.02
2023-04-14T09:10:31.957Z,12.80
2023-04-14T09:12:59.329Z,11.38
2023-04-14T09:15:29.063Z,12.13
2023-04-14T09:17:57.912Z,13.40
2023-04-14T09:20:36.841Z,9.98
2023-04-14T09:23:09.719Z,7.80
2023-04-14T09:25:39.055Z,9.10
2023-04-14T09:28:05.764Z,13.15
2023-04-14T09:30:33.507Z,11.85
2023-04-14T09:33:07.620Z,10.50
2023-04-14T09:35:49.645Z,8.68
2023-04-14T09:38:37.551Z,10.00
2023-04-14T09:41:08.600Z,9.32
2023-04-14T09:43:36.794Z,8.75
2023-04-14T09:46:09.660Z,12.98
2023-04-14T09:48:49.247Z,9.25
2023-04-14T09:51:16.368Z,8.73
2023-04-14T09:53:43.121Z,9.23
2023-04-14T09:56:11.665Z,9.50
2023-04-14T09:58:40.200Z,14.88
2023-04-14T10:01:15.702Z,12.13
2023-04-14T10:03:47.690Z,10.70
2023-04-14T10:06:23.249Z,15.65
2023-04-14T10:08:52.177Z,9.10
2023-04-14T10:11:30.057Z,9.65
2023-04-14T10:13:58.050Z,8.85
2023-04-14T10:16:25.730Z,9.90
2023-04-14T10:18:53.730Z,11.00
2023-04-14T10:21:23.072Z,9.27
2023-04-14T10:23:50.279Z,10.95
2023-04-14T10:26:18.827Z,13.30
2023-04-14T10:28:48.009Z,10.80
2023-04-14T10:31:22.288Z,7.70
2023-04-14T10:33:49.368Z,11.40
2023-04-14T10:36:27.201Z,9.07
2023-04-14T10:39:03.331Z,9.45
2023-04-14T10:41:42.601Z,7.38
2023-04-14T10:44:28.688Z,7.28
2023-04-14T10:46:57.118Z,9.35
2023-04-14T10:49:30.354Z,8.68
2023-04-14T10:52:21.218Z,8.80
2023-04-14T10:55:07.513Z,13.45
2023-04-14T10:57:40.097Z,7.95
2023-04-14T11:00:31.864Z,9.07
2023-04-14T11:02:59.083Z,8.57
2023-04-14T11:05:26.497Z,11.35
2023-04-14T11:07:56.127Z,10.20
2023-04-14T11:10:23.983Z,8.50
2023-04-14T11:13:02.408Z,8.38
2023-04-14T11:15:48.139Z,9.57
2023-04-14T11:18:37.484Z,10.43
2023-04-14T11:21:05.473Z,9.10
2023-04-14T11:23:34.516Z,8.50
2023-04-14T11:26:02.159Z,15.30
2023-04-14T11:28:36.931Z,8.98
2023-04-14T11:31:06.036Z,10.38
2023-04-14T11:33:38.372Z,12.02
2023-04-14T11:36:07.297Z,9.45
2023-04-14T11:38:40.721Z,9.68
2023-04-14T11:41:08.898Z,9.95
2023-04-14T11:43:38.242Z,13.95
2023-04-14T11:46:06.049Z,15.68
2023-04-14T11:48:33.325Z,7.05
2023-04-14T11:51:03.632Z,8.25
2023-04-14T11:53:32.129Z,10.15
2023-04-14T11:56:00.489Z,8.13
2023-04-14T11:58:27.782Z,7.82
2023-04-14T12:00:59.578Z,8.25
2023-04-14T12:03:33.008Z,12.38
2023-04-14T12:06:01.716Z,14.38
2023-04-14T12:08:33.326Z,10.48
2023-04-14T12:11:15.979Z,9.43
2023-04-14T12:13:44.510Z,9.32
2023-04-14T12:16:11.949Z,10.70
2023-04-14T12:18:39.634Z,11.02
2023-04-14T12:21:09.747Z,9.65
2023-04-14T12:23:39.987Z,7.78
2023-04-14T12:26:11.965Z,8.88
2023-04-14T12:28:41.384Z,17.27
2023-04-14T12:31:09.227Z,10.73
2023-04-14T12:33:36.442Z,10.30
2023-04-14T12:36:08.078Z,10.30
2023-04-14T12:38:35.337Z,10.95
2023-04-14T12:41:02.250Z,15.05
2023-04-14T12:43:30.293Z,11.60
2023-04-14T12:45:58.768Z,9.07
2023-04-14T12:48:46.762Z,14.48
2023-04-14T12:51:18.628Z,12.85
2023-04-14T12:53:47.726Z,13.35
2023-04-14T12:56:27.407Z,9.93
2023-04-14T12:58:55.283Z,10.05
2023-04-14T13:01:22.696Z,7.90
2023-04-14T13:03:52.491Z,8.70
2023-04-14T13:06:21.373Z,8.98
2023-04-14T13:08:49.937Z,7.78
2023-04-14T13:11:18.017Z,9.38
2023-04-14T13:13:45.810Z,14.82
2023-04-14T13:16:16.728Z,14.13
2023-04-14T13:18:46.594Z,13.27
2023-04-14T13:21:13.564Z,12.63
2023-04-14T13:23:41.010Z,16.33
2023-04-14T13:26:08.449Z,16.85
2023-04-14T13:28:36.803Z,10.70
2023-04-14T13:31:03.782Z,11.45
2023-04-14T13:33:32.406Z,9.80
2023-04-14T13:35:59.189Z,11.55
2023-04-14T13:38:27.271Z,11.82
2023-04-14T13:40:53.972Z,10.88
2023-04-14T13:43:21.516Z,15.52
2023-04-14T13:45:48.342Z,13.43
2023-04-14T13:48:15.522Z,11.82
2023-04-14T13:50:42.334Z,9.52
2023-04-14T13:53:09.442Z,9.65
2023-04-14T13:55:36.545Z,9.18
2023-04-14T13:58:03.835Z,11.27
2023-04-14T14:00:30.864Z,7.90
2023-04-14T14:02:58.080Z,10.13
2023-04-14T14:05:24.993Z,11.13
2023-04-14T14:07:52.139Z,9.95
2023-04-14T14:10:19.354Z,13.95
2023-04-14T14:12:46.547Z,10.30
2023-04-14T14:15:13.625Z,10.38
2023-04-14T14:17:41.498Z,16.83
2023-04-14T14:20:09.552Z,9.55
2023-04-14T14:22:36.912Z,12.32
2023-04-14T14:25:17.523Z,17.55
2023-04-14T14:27:45.823Z,7.78
2023-04-14T14:30:13.076Z,14.05
2023-04-14T14:32:40.223Z,11.88
2023-04-14T14:35:07.268Z,12.40
2023-04-14T14:37:34.385Z,9.23
2023-04-14T14:40:01.335Z,10.27
2023-04-14T14:42:28.379Z,11.88
2023-04-14T14:44:55.348Z,8.00
2023-04-14T14:47:22.466Z,6.35
2023-04-14T14:49:59.754Z,6.88
2023-04-14T14:52:31.306Z,7.47
2023-04-14T14:54:58.088Z,7.05
2023-04-14T14:57:25.152Z,7.63
2023-04-14T14:59:52.750Z,6.25
2023-04-14T15:02:21.266Z,4.32
2023-04-14T15:04:48.948Z,10.15
2023-04-14T15:07:16.120Z,6.40
2023-04-14T15:09:42.950Z,5.43
2023-04-14T15:12:10.079Z,7.93
2023-04-14T15:14:36.946Z,10.10
2023-04-14T15:17:03.991Z,8.95
2023-04-14T15:19:30.721Z,5.80
2023-04-14T15:21:58.466Z,9.38
2023-04-14T15:24:25.316Z,7.45
2023-04-14T15:26:52.378Z,9.20
2023-04-14T15:29:19.572Z,6.22
2023-04-14T15:31:46.735Z,13.48
2023-04-14T15:34:13.541Z,7.95
2023-04-14T15:36:40.592Z,11.48
2023-04-14T15:39:07.652Z,6.38
2023-04-14T15:41:36.334Z,15.00
2023-04-14T15:44:03.366Z,10.25
2023-04-14T15:46:30.939Z,7.78
2023-04-14T15:48:57.703Z,8.13
2023-04-14T15:51:24.852Z,6.95
2023-04-14T15:53:51.980Z,8.88
2023-04-14T15:56:19.137Z,10.80
2023-04-14T15:58:46.022Z,6.35
2023-04-14T16:01:13.100Z,6.63
2023-04-14T16:03:40.059Z,11.70
2023-04-14T16:06:07.408Z,6.50
2023-04-14T16:08:34.474Z,9.35
2023-04-14T16:11:02.422Z,6.38
2023-04-14T16:13:29.213Z,4.75
2023-04-14T16:15:57.272Z,5.72
2023-04-14T16:18:24.263Z,8.70
2023-04-14T16:20:51.436Z,11.82
2023-04-14T16:23:18.167Z,19.33
2023-04-14T16:25:51.043Z,11.00
2023-04-14T16:28:18.072Z,12.32
2023-04-14T16:30:45.867Z,5.72
2023-04-14T16:33:13.202Z,9.82
2023-04-14T16:35:40.572Z,5.47
2023-04-14T16:38:08.775Z,4.40
2023-04-14T16:40:36.729Z,5.72
2023-04-14T16:43:04.367Z,7.07
2023-04-14T16:45:32.035Z,11.23
2023-04-14T16:47:59.080Z,9.40
2023-04-14T16:50:26.938Z,8.38
2023-04-14T16:52:53.869Z,10.52
2023-04-14T16:55:21.093Z,7.13
2023-04-14T16:57:47.999Z,87.00
2023-04-14T17:00:15.350Z,18.83
2023-04-14T17:02:42.646Z,10.63
2023-04-14T17:05:11.193Z,7.45
2023-04-14T17:07:38.099Z,8.23
2023-04-14T17:10:05.827Z,10.15
2023-04-14T17:12:33.140Z,9.18
2023-04-14T17:15:01.110Z,9.70
2023-04-14T17:17:28.424Z,9.38
2023-04-14T17:19:56.851Z,6.22
2023-04-14T17:22:24.641Z,11.82
2023-04-14T17:24:52.559Z,9.60
2023-04-14T17:27:19.421Z,6.10
2023-04-14T17:29:46.493Z,13.13
2023-04-14T17:32:14.874Z,8.85
2023-04-14T17:34:42.252Z,14.15
2023-04-14T17:37:09.045Z,8.07
2023-04-14T17:39:36.279Z,15.02
2023-04-14T17:42:03.439Z,14.75
2023-04-14T17:44:32.762Z,9.13
2023-04-14T17:47:03.640Z,10.82
2023-04-14T17:49:31.482Z,18.95
2023-04-14T17:51:58.665Z,12.35
2023-04-14T17:54:26.480Z,19.10
2023-04-14T17:56:54.180Z,18.33
2023-04-14T17:59:21.489Z,19.17
2023-04-14T18:01:48.656Z,18.08
2023-04-14T18:04:16.038Z,14.27
2023-04-14T18:06:42.811Z,17.73
2023-04-14T18:09:10.618Z,17.75
2023-04-14T18:11:37.793Z,16.70
2023-04-14T18:14:05.226Z,15.27
2023-04-14T18:16:32.387Z,18.38
2023-04-14T18:19:00.310Z,18.42
2023-04-14T18:21:28.046Z,18.58
2023-04-14T18:26:26.670Z,17.27
2023-04-14T18:28:55.702Z,14.57
2023-04-14T18:31:22.525Z,14.00
2023-04-14T18:33:49.702Z,24.35
2023-04-14T18:36:16.475Z,18.10
2023-04-14T18:38:43.451Z,22.73
2023-04-14T18:41:10.330Z,28.70
2023-04-14T18:43:38.012Z,32.13
2023-04-14T18:46:04.760Z,19.25
2023-04-14T18:48:31.891Z,16.50
2023-04-14T18:51:01.899Z,18.42
2023-04-14T18:53:29.481Z,19.67
2023-04-14T18:55:56.289Z,21.15
2023-04-14T18:58:23.844Z,16.08
2023-04-14T19:00:51.409Z,21.48
2023-04-14T19:03:18.692Z,20.10
2023-04-14T19:05:45.543Z,15.43
2023-04-14T19:08:12.594Z,16.35
2023-04-14T19:10:40.623Z,16.33
2023-04-14T19:13:08.018Z,18.52
2023-04-14T19:15:35.472Z,23.05
2023-04-14T19:18:03.649Z,19.05
2023-04-14T19:20:30.813Z,17.30
2023-04-14T19:22:58.455Z,17.33
2023-04-14T19:25:25.611Z,19.95
2023-04-14T19:27:52.626Z,15.57
2023-04-14T19:30:19.588Z,12.07
2023-04-14T19:32:46.680Z,14.77
2023-04-14T19:35:13.558Z,11.10
2023-04-14T19:37:40.628Z,12.65
2023-04-14T19:40:08.333Z,13.88
2023-04-14T19:42:35.671Z,14.23
2023-04-14T19:45:02.506Z,15.85
2023-04-14T19:47:29.766Z,18.05
2023-04-14T19:49:59.570Z,11.52
2023-04-14T19:52:28.244Z,18.93
2023-04-14T19:54:56.368Z,14.25
2023-04-14T19:57:23.955Z,16.25
2023-04-14T19:59:50.635Z,12.50
2023-04-14T20:02:17.987Z,14.65
2023-04-14T20:04:45.154Z,14.77
2023-04-14T20:07:12.738Z,12.85
2023-04-14T20:09:44.811Z,14.10
2023-04-14T20:12:12.812Z,10.82
2023-04-14T20:14:40.391Z,15.80
2023-04-14T20:17:08.975Z,13.50
2023-04-14T20:19:36.906Z,18.33
2023-04-14T20:22:04.757Z,16.90
2023-04-14T20:24:31.493Z,16.33
2023-04-14T20:26:58.707Z,18.55
2023-04-14T20:29:25.638Z,15.55
2023-04-14T20:31:53.523Z,14.88
2023-04-14T20:34:20.915Z,14.02
2023-04-14T20:36:49.005Z,13.40
2023-04-14T20:39:17.446Z,22.00
2023-04-14T20:41:47.484Z,15.57
2023-04-14T20:44:14.214Z,16.13
2023-04-14T20:46:43.529Z,20.50
2023-04-14T20:49:10.332Z,12.70
2023-04-14T20:51:39.477Z,17.67
2023-04-14T20:54:06.957Z,16.17
2023-04-14T20:56:34.132Z,15.73
2023-04-14T20:59:01.189Z,14.73
2023-04-14T21:01:28.570Z,14.18
2023-04-14T21:03:56.225Z,13.43
2023-04-14T21:06:23.724Z,15.70
2023-04-14T21:08:51.040Z,17.33
2023-04-14T21:11:18.896Z,16.52
2023-04-14T21:15:30.459Z,15.93
2023-04-14T21:16:34.402Z,15.18
2023-04-14T21:19:02.574Z,15.65
2023-04-14T21:21:30.210Z,13.05
2023-04-14T21:23:56.946Z,13.83
2023-04-14T21:26:24.135Z,15.00
2023-04-14T21:28:50.967Z,15.82
2023-04-14T21:31:18.459Z,16.25
2023-04-14T21:33:46.366Z,19.85
2023-04-14T21:36:13.482Z,18.70
2023-04-14T21:38:40.461Z,16.55
2023-04-14T21:41:10.755Z,16.67
2023-04-14T21:43:38.760Z,15.25
2023-04-14T21:46:05.934Z,15.88
2023-04-14T21:48:32.823Z,16.08
2023-04-14T21:51:00.007Z,16.23
2023-04-14T21:53:27.273Z,17.97
2023-04-14T21:55:58.703Z,17.25
2023-04-14T21:58:36.574Z,17.73
2023-04-14T22:01:03.744Z,17.13
2023-04-14T22:03:30.682Z,20.25
2023-04-14T22:05:57.863Z,17.42
2023-04-14T22:08:24.622Z,18.98
2023-04-14T22:10:52.675Z,17.67
2023-04-14T22:13:19.434Z,16.75
2023-04-14T22:15:46.822Z,17.10
2023-04-14T22:18:13.744Z,17.37
2023-04-14T22:20:40.775Z,16.87
2023-04-14T22:23:07.557Z,17.10
2023-04-14T22:25:35.328Z,14.87
2023-04-14T22:28:02.076Z,17.80
2023-04-14T22:30:29.944Z,16.47
2023-04-14T22:32:57.366Z,17.27
2023-04-14T22:35:24.708Z,20.33
2023-04-14T22:37:51.676Z,16.00
2023-04-14T22:40:18.699Z,15.95
2023-04-14T22:42:46.001Z,17.37
2023-04-14T22:45:13.588Z,16.27
2023-04-14T22:47:40.690Z,17.43
2023-04-14T22:50:08.284Z,16.40
2023-04-14T22:52:34.980Z,17.97
2023-04-14T22:55:02.304Z,16.40
2023-04-14T22:57:29.122Z,17.33
2023-04-14T22:59:56.510Z,17.40
2023-04-14T23:02:23.361Z,15.13
2023-04-14T23:04:51.291Z,17.73
2023-04-14T23:07:18.113Z,16.13
2023-04-14T23:09:45.218Z,15.93
2023-04-14T23:12:12.012Z,14.40
2023-04-14T23:14:39.086Z,16.07
2023-04-14T23:17:06.076Z,16.43
2023-04-14T23:19:33.656Z,20.43
2023-04-14T23:22:00.525Z,21.23
2023-04-14T23:24:27.622Z,19.43
2023-04-14T23:26:54.675Z,17.27
2023-04-14T23:29:21.688Z,16.03
2023-04-14T23:31:48.593Z,16.03
2023-04-14T23:34:16.862Z,15.80
2023-04-14T23:36:46.240Z,18.67
2023-04-14T23:39:13.213Z,17.83
2023-04-14T23:41:39.926Z,17.37
2023-04-14T23:44:07.073Z,15.18
2023-04-14T23:46:34.459Z,16.77
2023-04-14T23:49:10.495Z,17.90
2023-04-14T23:51:48.792Z,14.50
2023-04-14T23:54:15.811Z,17.67
2023-04-14T23:56:42.553Z,15.77
2023-04-14T23:59:09.748Z,16.60
